Time;durP1;ratioP1;P1;durP2;ratioP2;P2;SDS_P1;SDS_P2;PMS_P1;PMS_P2;Temp;Humidity;BMP_temperature;BMP_pressure;BME280_temperature;BME280_humidity;BME280_pressure;Samples;Min_cycle;Max_cycle;Signal;HPM_P1;HPM_P2
2021/07/10 00:00:13;;;;;;;5.18;3.25;;;;;;;15.98;69.47;101561.56;4997201;28;20050;-79
2021/07/10 00:02:40;;;;;;;6.30;3.35;;;;;;;15.98;69.74;101578.22;5016994;28;20188;-79
2021/07/10 00:05:08;;;;;;;5.60;3.17;;;;;;;15.96;69.52;101568.69;5014509;28;20042;-79
2021/07/10 00:07:34;;;;;;;5.57;3.40;;;;;;;15.91;70.19;101568.06;5029939;28;20042;-77
2021/07/10 00:10:01;;;;;;;6.90;3.45;;;;;;;16.00;69.90;101565.84;5014720;28;20049;-77
2021/07/10 00:12:27;;;;;;;5.43;3.40;;;;;;;15.98;69.47;101557.16;5014710;28;20077;-82
2021/07/10 00:14:53;;;;;;;7.07;3.28;;;;;;;16.04;69.69;101563.03;5014462;28;20485;-83
2021/07/10 00:17:19;;;;;;;6.40;3.08;;;;;;;16.03;69.62;101554.31;5014819;28;20061;-83
2021/07/10 00:19:52;;;;;;;4.00;3.03;;;;;;;15.98;69.73;101559.78;5015129;28;20083;-83
2021/07/10 00:22:19;;;;;;;6.10;3.50;;;;;;;15.95;70.02;101557.31;5019931;28;20081;-80
2021/07/10 00:24:45;;;;;;;7.90;3.50;;;;;;;16.02;69.89;101555.22;5019780;28;20052;-81
2021/07/10 00:27:11;;;;;;;5.75;3.25;;;;;;;16.00;70.12;101557.06;5015946;28;20050;-76
2021/07/10 00:29:38;;;;;;;7.82;3.35;;;;;;;15.88;70.39;101552.38;4998077;28;20133;-78
2021/07/10 00:32:04;;;;;;;6.03;3.65;;;;;;;15.89;70.25;101543.56;5015483;28;20490;-78
2021/07/10 00:34:30;;;;;;;7.35;3.45;;;;;;;15.88;70.27;101523.41;5015426;28;20490;-80
2021/07/10 00:36:56;;;;;;;8.05;3.72;;;;;;;15.85;70.28;101532.31;5015106;28;20052;-77
2021/07/10 00:39:22;;;;;;;7.95;3.58;;;;;;;15.69;70.68;101506.69;5000082;28;20047;-80
2021/07/10 00:41:48;;;;;;;6.07;3.50;;;;;;;15.69;70.54;101495.31;4978715;28;20046;-82
2021/07/10 00:44:15;;;;;;;5.68;3.60;;;;;;;15.90;70.43;101522.41;4996486;28;20141;-83
2021/07/10 00:46:41;;;;;;;6.18;3.60;;;;;;;15.87;70.39;101506.78;4995853;28;20051;-81
2021/07/10 00:49:07;;;;;;;4.90;3.25;;;;;;;15.74;70.06;101500.34;4995844;28;20046;-81
2021/07/10 00:51:34;;;;;;;4.80;2.80;;;;;;;15.84;70.23;101512.19;4995344;28;20209;-81
2021/07/10 00:54:00;;;;;;;5.07;3.00;;;;;;;15.91;70.07;101507.50;4995097;28;20517;-83
2021/07/10 00:56:26;;;;;;;5.32;3.10;;;;;;;15.82;70.06;101512.25;4996777;28;20121;-83
2021/07/10 00:58:53;;;;;;;4.43;3.03;;;;;;;15.84;70.03;101510.41;4979901;28;20056;-80
2021/07/10 01:01:19;;;;;;;7.32;3.30;;;;;;;15.87;69.41;101503.28;4995717;28;20050;-81
2021/07/10 01:03:46;;;;;;;4.78;3.08;;;;;;;15.86;69.64;101512.97;4994880;28;20069;-80
2021/07/10 01:06:14;;;;;;;7.20;3.30;;;;;;;15.68;69.86;101504.13;4998092;28;20050;-82
2021/07/10 01:08:41;;;;;;;6.05;3.28;;;;;;;15.60;70.51;101506.25;4999215;28;20057;-82
2021/07/10 01:11:09;;;;;;;5.43;3.25;;;;;;;15.49;70.51;101497.09;4999023;28;20189;-81
2021/07/10 01:13:35;;;;;;;3.97;3.00;;;;;;;15.52;70.81;101501.34;4999029;28;20050;-83
2021/07/10 01:16:03;;;;;;;5.00;3.28;;;;;;;15.57;70.57;101501.97;4998689;28;20080;-83
2021/07/10 01:18:29;;;;;;;7.55;3.42;;;;;;;15.57;70.19;101494.09;4981203;28;20057;-80
2021/07/10 01:20:55;;;;;;;6.47;3.40;;;;;;;15.62;69.88;101489.47;4980859;28;20042;-78
2021/07/10 01:23:23;;;;;;;3.92;2.70;;;;;;;15.62;70.06;101481.56;4997906;28;20051;-81
2021/07/10 01:25:50;;;;;;;3.83;2.92;;;;;;;15.70;69.75;101486.50;4997829;28;20047;-81
2021/07/10 01:28:17;;;;;;;7.57;3.53;;;;;;;15.68;69.49;101485.69;4998211;28;20076;-80
2021/07/10 01:30:45;;;;;;;3.85;3.00;;;;;;;15.49;70.10;101473.41;4998031;28;20057;-82
2021/07/10 01:33:12;;;;;;;4.38;3.00;;;;;;;15.50;69.93;101471.63;4998905;28;20046;-82
2021/07/10 01:35:39;;;;;;;6.07;3.03;;;;;;;15.49;70.26;101472.53;4997559;28;20553;-80
2021/07/10 01:38:08;;;;;;;4.95;2.78;;;;;;;15.33;69.71;101456.63;5002453;28;20070;-82
2021/07/10 01:40:35;;;;;;;5.78;2.47;;;;;;;15.48;69.82;101466.44;5017492;28;20394;-82
2021/07/10 01:43:05;;;;;;;5.28;2.75;;;;;;;15.55;69.29;101460.88;5017198;28;20054;-81
2021/07/10 01:45:33;;;;;;;5.57;2.80;;;;;;;15.66;69.09;101469.13;5000254;28;20512;-83
2021/07/10 01:47:59;;;;;;;4.57;2.90;;;;;;;15.59;69.06;101452.78;4979148;28;20447;-80
2021/07/10 01:50:26;;;;;;;4.07;2.58;;;;;;;15.56;69.60;101460.81;5015926;28;20046;-81
2021/07/10 01:52:53;;;;;;;4.30;3.00;;;;;;;15.47;69.36;101443.69;5012749;28;20050;-83
2021/07/10 01:55:21;;;;;;;4.85;3.03;;;;;;;15.53;69.27;101453.91;4997492;28;20442;-80
2021/07/10 01:57:48;;;;;;;4.68;2.30;;;;;;;15.48;68.95;101420.88;4997292;28;20047;-78
2021/07/10 02:00:16;;;;;;;4.05;2.42;;;;;;;15.63;69.03;101443.81;4997041;28;20049;-80
2021/07/10 02:02:43;;;;;;;4.63;2.72;;;;;;;15.66;68.71;101440.16;4996832;28;20522;-82
2021/07/10 02:05:11;;;;;;;5.03;3.08;;;;;;;15.69;68.30;101438.25;4996565;28;20050;-79
2021/07/10 02:07:38;;;;;;;3.92;2.60;;;;;;;15.59;68.75;101418.56;4996920;28;20050;-79
2021/07/10 02:10:10;;;;;;;4.80;3.00;;;;;;;15.60;68.62;101428.16;4997363;28;20049;-76
2021/07/10 02:12:39;;;;;;;;;;;;;;;15.60;68.62;101429.94;4997475;28;20050;-83
2021/07/10 02:15:07;;;;;;;6.85;2.83;;;;;;;15.51;68.53;101426.84;4979498;28;20027;-79
2021/07/10 02:17:33;;;;;;;4.15;2.85;;;;;;;15.51;68.45;101428.59;4996515;28;20108;-81
2021/07/10 02:19:59;;;;;;;5.25;2.70;;;;;;;15.44;68.66;101420.16;5013019;28;20405;-78
2021/07/10 02:22:25;;;;;;;4.15;2.63;;;;;;;15.44;68.71;101419.28;5016117;28;20132;-80
2021/07/10 02:24:51;;;;;;;3.60;2.60;;;;;;;15.30;68.22;101376.06;5016400;28;20185;-78
2021/07/10 02:27:19;;;;;;;5.05;2.90;;;;;;;15.50;68.45;101406.72;4998865;28;20132;-81
2021/07/10 02:29:46;;;;;;;4.38;2.58;;;;;;;15.57;68.30;101406.41;5016238;28;20195;-81
2021/07/10 02:32:12;;;;;;;4.22;2.90;;;;;;;15.52;68.33;101404.00;5015323;28;20486;-79
2021/07/10 02:34:38;;;;;;;4.25;2.90;;;;;;;15.24;68.74;101362.38;5015709;28;20136;-79
2021/07/10 02:37:04;;;;;;;4.50;3.13;;;;;;;15.38;68.98;101388.88;5015909;28;20045;-76
2021/07/10 02:39:31;;;;;;;3.92;2.65;;;;;;;15.42;69.06;101393.06;5016094;28;20056;-82
2021/07/10 02:41:57;;;;;;;3.90;2.72;;;;;;;15.46;68.90;101399.03;5031450;28;20054;-80
2021/07/10 02:44:23;;;;;;;6.63;3.47;;;;;;;15.39;69.37;101402.88;5015989;28;20500;-80
2021/07/10 02:46:49;;;;;;;5.28;3.17;;;;;;;15.30;69.17;101389.22;5015409;28;20053;-80
2021/07/10 02:49:15;;;;;;;5.03;3.47;;;;;;;15.29;69.60;101402.44;5016105;28;20140;-79
2021/07/10 02:51:41;;;;;;;4.60;2.70;;;;;;;15.30;69.88;101393.66;5015725;28;20046;-79
2021/07/10 02:54:07;;;;;;;7.78;3.70;;;;;;;15.15;70.07;101384.69;4999412;28;20053;-81
2021/07/10 02:56:33;;;;;;;5.28;3.38;;;;;;;15.20;70.08;101399.31;4996161;28;20085;-78
2021/07/10 02:58:59;;;;;;;5.63;3.70;;;;;;;15.21;70.09;101400.19;4995835;28;20046;-78
2021/07/10 03:01:25;;;;;;;5.80;3.63;;;;;;;15.15;70.59;101384.69;4996291;28;20138;-81
2021/07/10 03:03:51;;;;;;;7.70;3.80;;;;;;;15.13;70.81;101392.63;4995371;28;20066;-81
2021/07/10 03:06:17;;;;;;;4.85;3.03;;;;;;;15.26;70.52;101381.53;4996017;28;20526;-81
2021/07/10 03:08:44;;;;;;;5.53;3.50;;;;;;;15.23;70.56;101361.50;4997718;28;20059;-76
2021/07/10 03:11:12;;;;;;;7.15;3.45;;;;;;;15.19;70.83;101373.94;4984530;28;20140;-76
2021/07/10 03:13:39;;;;;;;7.20;3.55;;;;;;;15.06;71.69;101357.03;5009696;28;20093;-78
2021/07/10 03:16:06;;;;;;;4.95;3.40;;;;;;;15.20;71.92;101365.13;5019511;28;20045;-77
2021/07/10 03:18:32;;;;;;;6.82;3.55;;;;;;;15.18;72.20;101364.38;5013580;28;20398;-81
2021/07/10 03:21:00;;;;;;;6.32;3.55;;;;;;;15.15;73.08;101353.16;5001110;28;20053;-76
2021/07/10 03:23:27;;;;;;;5.72;3.50;;;;;;;15.18;73.60;101359.13;4980780;28;20054;-77
2021/07/10 03:25:53;;;;;;;5.13;3.55;;;;;;;15.24;73.68;101357.94;5012231;28;20050;-77
2021/07/10 03:28:19;;;;;;;4.90;3.88;;;;;;;15.20;74.30;101361.66;4978820;28;20081;-78
2021/07/10 03:30:51;;;;;;;5.80;3.97;;;;;;;15.18;74.49;101355.59;4995619;28;20050;-78
2021/07/10 03:33:19;;;;;;;5.28;3.65;;;;;;;15.22;74.96;101359.78;4978611;28;20104;-78
2021/07/10 03:35:46;;;;;;;6.35;3.80;;;;;;;15.16;75.10;101358.31;4995907;28;20089;-79
2021/07/10 03:38:12;;;;;;;5.13;3.70;;;;;;;15.04;74.72;101341.34;4998946;28;20058;-77
2021/07/10 03:40:38;;;;;;;5.63;4.03;;;;;;;15.03;74.82;101344.03;4999533;28;20094;-74
2021/07/10 03:43:04;;;;;;;5.85;3.67;;;;;;;14.95;75.43;101352.28;4998438;28;20064;-75
2021/07/10 03:45:30;;;;;;;6.38;3.80;;;;;;;14.84;76.16;101351.91;4998792;28;20046;-76
2021/07/10 03:47:56;;;;;;;4.95;3.20;;;;;;;14.76;76.54;101365.41;4997435;28;20065;-76
2021/07/10 03:50:23;;;;;;;5.20;3.90;;;;;;;14.77;77.38;101367.13;4981884;28;20046;-75
2021/07/10 03:52:49;;;;;;;6.55;3.78;;;;;;;14.88;76.88;101370.09;5002977;28;20046;-75
2021/07/10 03:55:16;;;;;;;5.68;3.75;;;;;;;14.96;76.48;101372.38;5019463;28;20049;-74
2021/07/10 03:57:42;;;;;;;6.25;3.88;;;;;;;14.98;75.66;101374.97;5001631;28;20052;-75
2021/07/10 04:00:12;;;;;;;6.82;3.90;;;;;;;14.93;75.49;101351.50;5016058;28;20081;-77
2021/07/10 04:02:39;;;;;;;4.68;3.72;;;;;;;15.00;76.16;101370.47;5014064;28;20061;-77
2021/07/10 04:05:07;;;;;;;5.63;3.58;;;;;;;14.85;76.33;101351.84;5014060;28;20047;-78
2021/07/10 04:07:34;;;;;;;6.35;4.07;;;;;;;15.01;76.17;101378.31;4996884;28;20509;-78
2021/07/10 04:10:01;;;;;;;6.07;3.83;;;;;;;15.00;76.73;101371.34;5013758;28;20459;-77
2021/07/10 04:12:28;;;;;;;5.47;4.20;;;;;;;14.93;76.30;101375.16;5013880;28;20486;-77
2021/07/10 04:14:59;;;;;;;6.57;3.83;;;;;;;14.86;76.24;101369.31;5013704;28;20141;-78
2021/07/10 04:17:30;;;;;;;8.02;4.35;;;;;;;14.86;76.91;101373.72;5014344;28;20067;-77
2021/07/10 04:19:57;;;;;;;7.32;4.60;;;;;;;14.89;76.70;101376.22;5014381;28;20052;-76
2021/07/10 04:22:23;;;;;;;5.25;4.32;;;;;;;14.84;76.59;101373.81;5028910;28;20053;-76
2021/07/10 04:24:51;;;;;;;6.35;4.15;;;;;;;14.84;76.62;101370.31;5014339;28;20045;-77
2021/07/10 04:27:18;;;;;;;6.75;4.00;;;;;;;14.88;76.54;101369.28;4997166;28;20056;-81
2021/07/10 04:29:45;;;;;;;5.95;3.33;;;;;;;14.76;76.59;101357.53;5014482;28;20459;-76
2021/07/10 04:32:12;;;;;;;5.18;4.10;;;;;;;14.66;76.16;101343.94;5014787;28;20417;-76
2021/07/10 04:34:39;;;;;;;4.90;4.00;;;;;;;14.79;76.50;101373.16;4997326;28;20052;-76
2021/07/10 04:37:06;;;;;;;5.43;4.07;;;;;;;14.69;75.99;101372.69;5014734;28;20046;-78
2021/07/10 04:39:32;;;;;;;7.32;4.40;;;;;;;14.51;76.85;101366.47;5013598;28;20048;-81
2021/07/10 04:41:58;;;;;;;5.80;4.28;;;;;;;14.54;77.26;101347.94;5014795;28;20532;-79
2021/07/10 04:44:24;;;;;;;5.90;4.10;;;;;;;14.65;77.06;101359.75;5014642;28;20057;-81
2021/07/10 04:46:51;;;;;;;6.53;4.03;;;;;;;14.68;76.62;101343.88;5014459;28;20097;-82
2021/07/10 04:49:17;;;;;;;5.90;4.22;;;;;;;14.83;76.23;101352.84;5015438;28;20136;-80
2021/07/10 04:51:43;;;;;;;4.95;3.80;;;;;;;14.72;76.66;101353.31;4997928;28;20370;-80
2021/07/10 04:54:09;;;;;;;5.68;3.50;;;;;;;14.88;76.94;101361.38;5014824;28;20053;-80
2021/07/10 04:56:35;;;;;;;6.20;3.58;;;;;;;14.89;77.57;101357.81;5014518;28;20181;-77
2021/07/10 04:59:02;;;;;;;5.47;3.33;;;;;;;15.01;77.22;101373.03;5026836;28;20053;-79
2021/07/10 05:01:28;;;;;;;6.00;3.00;;;;;;;14.88;77.27;101345.63;5017059;28;20073;-82
2021/07/10 05:03:54;;;;;;;5.50;3.30;;;;;;;15.08;77.48;101375.38;4985223;28;20078;-78
2021/07/10 05:06:20;;;;;;;4.88;3.40;;;;;;;15.03;77.53;101380.84;4979611;28;20087;-78
2021/07/10 05:08:47;;;;;;;4.22;2.95;;;;;;;15.04;76.86;101372.03;4979338;28;20053;-82
2021/07/10 05:11:13;;;;;;;4.75;2.92;;;;;;;14.84;76.79;101344.03;4982525;28;20058;-82
2021/07/10 05:13:39;;;;;;;5.40;3.08;;;;;;;15.11;76.51;101380.47;4977868;28;20082;-78
2021/07/10 05:16:05;;;;;;;5.72;3.42;;;;;;;14.99;77.69;101382.75;4976948;28;20529;-81
2021/07/10 05:18:31;;;;;;;5.55;2.97;;;;;;;14.92;77.53;101372.59;4977356;28;20046;-81
2021/07/10 05:20:57;;;;;;;8.38;3.30;;;;;;;14.86;77.68;101374.56;4977678;28;20078;-82
2021/07/10 05:23:23;;;;;;;4.57;3.20;;;;;;;14.94;77.40;101389.16;4976993;28;20074;-80
2021/07/10 05:25:49;;;;;;;5.00;3.30;;;;;;;14.95;77.40;101388.22;4976338;28;20086;-83
2021/07/10 05:28:15;;;;;;;4.25;3.08;;;;;;;14.84;76.49;101365.94;4977288;28;20463;-82
2021/07/10 05:30:41;;;;;;;4.63;3.58;;;;;;;14.86;77.44;101365.84;4977238;28;20483;-81
2021/07/10 05:33:07;;;;;;;5.32;2.80;;;;;;;15.03;76.25;101376.44;4977635;28;20483;-82
2021/07/10 05:35:34;;;;;;;5.28;3.17;;;;;;;15.05;76.19;101379.00;4975968;28;20062;-84
2021/07/10 05:38:00;;;;;;;3.90;2.70;;;;;;;15.04;76.00;101375.50;4976852;28;20431;-79
2021/07/10 05:40:27;;;;;;;4.70;2.75;;;;;;;14.99;76.39;101379.25;4976092;28;20097;-83
2021/07/10 05:42:53;;;;;;;5.45;3.13;;;;;;;15.00;76.57;101376.59;4975875;28;20051;-80
2021/07/10 05:45:20;;;;;;;5.55;3.38;;;;;;;14.93;76.96;101382.19;4975974;28;20058;-76
2021/07/10 05:47:47;;;;;;;4.47;2.95;;;;;;;14.89;76.34;101374.44;4976055;28;20086;-76
2021/07/10 05:50:13;;;;;;;4.68;3.22;;;;;;;14.87;77.34;101380.69;4975337;28;20071;-79
2021/07/10 05:52:40;;;;;;;4.95;3.13;;;;;;;14.86;76.48;101373.72;4975610;28;20058;-83
2021/07/10 05:55:07;;;;;;;4.10;3.15;;;;;;;14.78;77.06;101379.34;4962001;28;20051;-84
2021/07/10 05:57:34;;;;;;;4.80;3.17;;;;;;;14.95;76.74;101375.09;4963092;28;20107;-84
2021/07/10 06:00:00;;;;;;;4.28;3.03;;;;;;;14.87;76.46;101362.31;4962437;29;20055;-83
2021/07/10 06:02:26;;;;;;;5.47;3.13;;;;;;;15.03;76.67;101372.97;4979550;28;20094;-83
2021/07/10 06:04:52;;;;;;;5.82;3.70;;;;;;;15.05;76.18;101373.75;5018107;28;20050;-79
2021/07/10 06:07:20;;;;;;;5.35;3.10;;;;;;;15.15;76.24;101368.91;5017988;28;20085;-81
2021/07/10 06:09:46;;;;;;;5.65;2.97;;;;;;;15.25;75.95;101359.66;5018193;28;20074;-80
2021/07/10 06:12:12;;;;;;;5.30;3.33;;;;;;;15.17;75.57;101361.78;5017793;28;20061;-83
2021/07/10 06:14:38;;;;;;;6.22;2.85;;;;;;;15.28;75.68;101362.16;5001320;28;20069;-75
2021/07/10 06:17:05;;;;;;;3.78;2.60;;;;;;;15.39;75.17;101366.03;5019320;28;20057;-78
2021/07/10 06:19:31;;;;;;;4.20;2.70;;;;;;;15.35;74.91;101345.13;5010422;28;20047;-83
2021/07/10 06:21:58;;;;;;;6.15;2.90;;;;;;;15.59;74.42;101362.47;5002604;28;20055;-83
2021/07/10 06:24:25;;;;;;;5.50;2.90;;;;;;;15.44;74.14;101356.16;4999236;28;20367;-85
2021/07/10 06:26:52;;;;;;;5.38;3.00;;;;;;;15.34;74.08;101345.22;4999988;28;20050;-85
2021/07/10 06:29:18;;;;;;;5.38;3.10;;;;;;;15.09;74.81;101324.47;4999088;28;20129;-83
2021/07/10 06:31:45;;;;;;;4.18;2.63;;;;;;;15.40;75.39;101351.97;4999544;28;20108;-83
2021/07/10 06:34:11;;;;;;;4.10;2.40;;;;;;;15.57;73.81;101345.88;5002294;28;20073;-77
2021/07/10 06:36:41;;;;;;;4.20;2.58;;;;;;;15.65;73.68;101346.38;5019737;28;20043;-78
2021/07/10 06:39:08;;;;;;;3.85;2.60;;;;;;;15.62;73.81;101335.97;5020465;28;20036;-78
2021/07/10 06:41:36;;;;;;;3.15;2.20;;;;;;;15.88;73.36;101355.78;5020493;28;20094;-78
2021/07/10 06:44:03;;;;;;;5.47;2.70;;;;;;;15.88;73.11;101352.28;5015266;28;20402;-81
2021/07/10 06:46:29;;;;;;;4.70;2.25;;;;;;;15.79;73.17;101349.16;5019167;28;20057;-80
2021/07/10 06:48:55;;;;;;;3.15;2.35;;;;;;;15.93;73.08;101348.50;5001510;28;20047;-82
2021/07/10 06:51:22;;;;;;;3.17;2.17;;;;;;;16.08;72.71;101353.94;5001908;28;20065;-82
2021/07/10 06:53:49;;;;;;;3.67;2.25;;;;;;;16.17;72.71;101354.31;4998653;28;20078;-81
2021/07/10 06:56:15;;;;;;;3.08;1.95;;;;;;;16.32;72.73;101359.72;5000485;28;20050;-84
2021/07/10 06:58:41;;;;;;;3.70;2.15;;;;;;;16.28;72.99;101359.03;5016742;28;20050;-83
2021/07/10 07:01:07;;;;;;;3.17;2.13;;;;;;;16.16;72.89;101355.25;5017554;28;20046;-83
2021/07/10 07:03:33;;;;;;;2.95;2.20;;;;;;;15.87;73.12;101334.78;5017063;28;20576;-84
2021/07/10 07:05:59;;;;;;;4.18;1.98;;;;;;;15.97;73.96;101341.31;5017177;28;20085;-79
2021/07/10 07:08:25;;;;;;;4.25;2.08;;;;;;;15.90;73.43;101355.72;5016511;28;20078;-84
2021/07/10 07:10:51;;;;;;;3.22;2.15;;;;;;;15.91;74.05;101323.19;5018144;28;20073;-79
2021/07/10 07:13:17;;;;;;;3.08;1.98;;;;;;;16.08;73.29;101349.50;5016479;28;20123;-80
2021/07/10 07:15:43;;;;;;;2.53;1.88;;;;;;;16.16;72.83;101339.44;5016462;28;20054;-81
2021/07/10 07:18:10;;;;;;;3.95;2.22;;;;;;;16.41;72.22;101355.75;5016534;28;20061;-80
2021/07/10 07:20:37;;;;;;;3.13;1.77;;;;;;;16.55;71.84;101347.13;5017573;28;20502;-77
2021/07/10 07:23:04;;;;;;;3.42;1.80;;;;;;;16.52;72.31;101353.41;5018252;28;20060;-80
2021/07/10 07:25:30;;;;;;;2.78;1.60;;;;;;;16.32;72.34;101333.38;5031660;28;20049;-81
2021/07/10 07:27:56;;;;;;;2.25;1.58;;;;;;;16.61;71.46;101346.78;5001207;28;20050;-80
2021/07/10 07:30:22;;;;;;;2.53;1.42;;;;;;;16.49;72.07;101349.16;5017283;28;20061;-80
2021/07/10 07:32:48;;;;;;;3.13;1.58;;;;;;;16.62;70.61;101345.84;5018206;28;20046;-80
2021/07/10 07:35:16;;;;;;;3.88;1.98;;;;;;;16.70;71.18;101348.94;5000133;28;20057;-83
2021/07/10 07:37:43;;;;;;;3.22;1.80;;;;;;;16.69;71.55;101346.41;5018171;28;20093;-82
2021/07/10 07:40:11;;;;;;;2.97;1.60;;;;;;;16.70;71.28;101338.41;5018209;28;20064;-82
2021/07/10 07:42:38;;;;;;;3.17;2.00;;;;;;;16.64;72.10;101344.84;5024127;28;20052;-77
2021/07/10 07:45:07;;;;;;;2.83;1.88;;;;;;;16.58;72.62;101332.00;5030775;28;20046;-78
2021/07/10 07:47:35;;;;;;;3.22;1.90;;;;;;;16.93;70.98;101337.19;5030886;28;20077;-77
2021/07/10 07:50:01;;;;;;;2.55;1.73;;;;;;;17.09;70.04;101318.72;5032390;28;20041;-77
2021/07/10 07:52:28;;;;;;;2.30;1.63;;;;;;;17.09;70.80;101324.00;5030673;28;20148;-78
2021/07/10 07:54:54;;;;;;;2.75;1.55;;;;;;;17.06;70.94;101323.31;4998079;28;20484;-80
2021/07/10 07:57:20;;;;;;;3.97;1.73;;;;;;;17.11;69.45;101342.38;5005290;28;20129;-82
2021/07/10 07:59:47;;;;;;;3.42;1.75;;;;;;;17.14;70.26;101344.84;5000502;28;20051;-84
2021/07/10 08:02:13;;;;;;;3.15;1.70;;;;;;;17.18;71.74;101341.09;5001447;28;20442;-82
2021/07/10 08:04:40;;;;;;;5.03;2.40;;;;;;;16.90;70.21;101325.91;5002106;28;20093;-81
2021/07/10 08:07:06;;;;;;;2.50;1.80;;;;;;;17.09;71.10;101336.34;4983555;28;20043;-83
2021/07/10 08:09:33;;;;;;;2.22;1.65;;;;;;;17.28;70.29;101330.88;5000961;28;20046;-83
2021/07/10 08:12:00;;;;;;;3.20;1.85;;;;;;;17.46;70.11;101322.88;5000468;28;20078;-83
2021/07/10 08:14:26;;;;;;;3.17;1.63;;;;;;;17.48;68.47;101326.25;4999618;28;20378;-84
2021/07/10 08:16:53;;;;;;;4.20;1.88;;;;;;;17.69;68.74;101321.53;4981797;28;20046;-81
2021/07/10 08:19:19;;;;;;;2.88;1.35;;;;;;;17.81;68.51;101322.59;4998647;28;20417;-80
2021/07/10 08:21:45;;;;;;;2.33;1.30;;;;;;;17.98;67.95;101332.19;4999124;28;20050;-80
2021/07/10 08:24:11;;;;;;;2.58;1.30;;;;;;;17.80;68.91;101319.09;4998651;28;20057;-83
2021/07/10 08:26:38;;;;;;;2.28;1.30;;;;;;;17.76;68.56;101321.06;4997842;28;20658;-82
2021/07/10 08:29:05;;;;;;;3.08;1.65;;;;;;;17.87;68.84;101304.59;4998199;28;20078;-83
2021/07/10 08:31:34;;;;;;;2.75;1.70;;;;;;;17.96;67.75;101318.25;4980502;28;20520;-83
2021/07/10 08:34:01;;;;;;;3.85;1.95;;;;;;;18.04;68.33;101318.59;4997255;28;20125;-81
2021/07/10 08:36:27;;;;;;;3.15;1.60;;;;;;;17.98;68.03;101319.84;4996550;28;20046;-84
2021/07/10 08:38:53;;;;;;;2.25;1.60;;;;;;;17.97;68.85;101323.41;4996785;28;20042;-85
2021/07/10 08:41:19;;;;;;;2.55;1.50;;;;;;;17.97;68.29;101306.72;4996874;28;20106;-83
2021/07/10 08:43:45;;;;;;;2.70;1.73;;;;;;;17.97;68.15;101326.06;4997350;28;20058;-77
2021/07/10 08:46:15;;;;;;;3.75;1.88;;;;;;;18.14;69.73;101324.19;4996884;28;20046;-83
2021/07/10 08:48:42;;;;;;;3.22;2.13;;;;;;;18.10;69.08;101325.31;4997817;28;20452;-80
2021/07/10 08:51:10;;;;;;;2.55;1.80;;;;;;;18.07;68.63;101307.88;5012106;28;20046;-78
2021/07/10 08:53:37;;;;;;;2.65;1.70;;;;;;;18.31;68.10;101317.88;5007378;28;20085;-78
2021/07/10 08:56:05;;;;;;;3.33;1.55;;;;;;;18.24;67.04;101297.13;5015282;28;20046;-80
2021/07/10 08:58:31;;;;;;;3.17;1.92;;;;;;;18.28;68.75;101316.28;5016211;28;20108;-81
2021/07/10 09:00:57;;;;;;;2.58;2.13;;;;;;;18.17;69.02;101318.72;5015071;28;20100;-79
2021/07/10 09:03:23;;;;;;;2.95;1.88;;;;;;;18.12;68.86;101318.16;5014778;28;20080;-78
2021/07/10 09:05:50;;;;;;;2.95;2.20;;;;;;;17.97;68.41;101304.94;5015054;28;20046;-79
2021/07/10 09:08:25;;;;;;;2.97;1.52;;;;;;;18.02;67.49;101317.88;5015703;28;20104;-78
2021/07/10 09:11:03;;;;;;;2.05;1.65;;;;;;;17.77;69.44;101314.84;5018261;28;20046;-77
2021/07/10 09:13:42;;;;;;;2.00;1.30;;;;;;;17.72;68.00;101316.06;5023564;28;20045;-79
2021/07/10 09:16:10;;;;;;;2.75;1.60;;;;;;;17.90;69.17;101303.56;5021969;28;20054;-76
2021/07/10 09:18:45;;;;;;;2.80;1.80;;;;;;;18.02;68.77;101308.16;5018181;28;20046;-77
2021/07/10 09:21:32;;;;;;;2.35;1.55;;;;;;;18.01;68.32;101311.72;5018038;28;20048;-77
2021/07/10 09:23:58;;;;;;;3.10;1.50;;;;;;;17.91;67.61;101315.84;5016461;28;20054;-78
2021/07/10 09:26:28;;;;;;;3.90;1.63;;;;;;;17.82;69.02;101305.81;5020124;28;20045;-79
2021/07/10 09:28:58;;;;;;;3.22;1.70;;;;;;;17.42;68.54;101314.28;5020033;28;20080;-79
2021/07/10 09:31:31;;;;;;;2.90;1.42;;;;;;;17.27;70.64;101308.91;5021280;28;20053;-80
2021/07/10 09:33:59;;;;;;;;;;;;;;;17.26;70.64;101306.38;5021276;28;20058;-78
2021/07/10 09:36:25;;;;;;;3.05;1.75;;;;;;;17.45;70.46;101300.88;5019369;28;20395;-80
2021/07/10 09:38:55;;;;;;;4.10;1.63;;;;;;;17.73;69.04;101299.28;5001838;28;20042;-80
2021/07/10 09:41:31;;;;;;;3.50;1.83;;;;;;;17.87;67.19;101304.59;5019928;28;20081;-79
2021/07/10 09:44:10;;;;;;;2.70;1.60;;;;;;;17.92;67.34;101291.97;5021498;28;20065;-78
2021/07/10 09:46:37;;;;;;;3.10;1.70;;;;;;;17.74;67.95;101287.78;5024011;28;20108;-79
2021/07/10 09:49:26;;;;;;;3.08;1.55;;;;;;;17.69;68.08;101300.41;5021502;28;20372;-79
2021/07/10 09:52:06;;;;;;;3.00;1.80;;;;;;;17.53;68.45;101311.00;5019787;28;20042;-78
2021/07/10 09:54:45;;;;;;;4.35;1.80;;;;;;;17.54;69.20;101310.06;4983317;28;20051;-79
2021/07/10 09:57:27;;;;;;;3.63;1.60;;;;;;;17.34;69.28;101287.47;4983049;28;20058;-80
2021/07/10 10:00:12;;;;;;;2.33;1.67;;;;;;;17.25;70.23;101289.69;4983318;28;20053;-78
2021/07/10 10:02:41;;;;;;;2.30;1.40;;;;;;;17.58;70.06;101309.78;4982791;28;20062;-77
2021/07/10 10:05:11;;;;;;;3.58;1.52;;;;;;;17.53;68.85;101301.28;4997680;28;20053;-75
2021/07/10 10:07:45;;;;;;;3.58;1.55;;;;;;;17.53;69.46;101306.56;4984581;28;20051;-78
2021/07/10 10:10:35;;;;;;;2.67;1.70;;;;;;;17.50;69.13;101308.53;4990393;28;20082;-81
2021/07/10 10:13:04;;;;;;;2.78;1.30;;;;;;;17.36;69.96;101312.81;4983633;28;20057;-78
2021/07/10 10:15:31;;;;;;;1.88;1.27;;;;;;;17.41;69.52;101305.47;4982293;28;20059;-82
2021/07/10 10:17:58;;;;;;;1.67;1.20;;;;;;;17.38;70.95;101305.69;4981086;28;20557;-81
2021/07/10 10:20:25;;;;;;;2.33;1.30;;;;;;;17.42;69.88;101306.34;4980294;28;20050;-81
2021/07/10 10:22:52;;;;;;;2.90;1.50;;;;;;;17.52;69.91;101301.41;4979219;28;20051;-80
2021/07/10 10:25:19;;;;;;;4.95;1.77;;;;;;;17.71;69.93;101314.34;4978985;28;20073;-81
2021/07/10 10:27:49;;;;;;;3.92;1.98;;;;;;;17.58;69.91;101301.03;4979606;28;20533;-80
2021/07/10 10:30:20;;;;;;;2.67;1.80;;;;;;;17.58;69.47;101304.50;4980319;28;20049;-79
2021/07/10 10:32:47;;;;;;;2.28;1.55;;;;;;;17.64;71.08;101302.44;4975988;28;20051;-80
2021/07/10 10:35:13;;;;;;;3.47;1.70;;;;;;;17.70;69.79;101296.81;4978361;28;20051;-78
2021/07/10 10:37:42;;;;;;;3.00;1.60;;;;;;;17.41;70.90;101302.84;4979150;28;20124;-79
2021/07/10 10:40:22;;;;;;;2.80;1.67;;;;;;;17.53;70.96;101303.09;4978444;28;20133;-81
2021/07/10 10:42:55;;;;;;;3.30;1.70;;;;;;;17.55;70.81;101299.44;4980044;28;20082;-79
2021/07/10 10:45:37;;;;;;;2.15;1.23;;;;;;;17.67;68.79;101289.09;4978439;28;20078;-78
2021/07/10 10:48:04;;;;;;;2.05;1.27;;;;;;;17.84;68.74;101291.56;4993760;28;20051;-78
2021/07/10 10:50:34;;;;;;;2.42;1.23;;;;;;;17.95;67.47;101295.41;4978904;28;20051;-79
2021/07/10 10:53:01;;;;;;;2.45;1.55;;;;;;;17.87;67.67;101282.59;5007131;28;20052;-77
2021/07/10 10:55:31;;;;;;;2.45;1.60;;;;;;;18.17;67.53;101301.06;5018773;28;20060;-77
2021/07/10 10:58:14;;;;;;;2.60;1.35;;;;;;;17.90;67.78;101298.28;5038670;28;20081;-76
2021/07/10 11:00:42;;;;;;;2.38;1.10;;;;;;;17.98;68.19;101296.06;5020503;28;20050;-78
2021/07/10 11:03:10;;;;;;;3.38;1.70;;;;;;;18.30;67.36;101290.63;4996745;28;20050;-79
2021/07/10 11:05:53;;;;;;;2.72;1.45;;;;;;;18.28;66.17;101292.50;4997649;28;20050;-78
2021/07/10 11:08:20;;;;;;;2.55;1.60;;;;;;;18.54;65.50;101300.59;4998020;28;20069;-78
2021/07/10 11:10:52;;;;;;;2.20;1.40;;;;;;;18.86;64.37;101295.09;4997191;28;20490;-78
2021/07/10 11:13:37;;;;;;;4.60;1.30;;;;;;;18.92;62.89;101288.59;4997452;28;20469;-78
2021/07/10 11:16:10;;;;;;;1.83;1.38;;;;;;;19.08;63.12;101285.81;4996855;28;20105;-79
2021/07/10 11:18:45;;;;;;;2.90;1.83;;;;;;;19.22;61.99;101280.47;4997170;28;20053;-78
2021/07/10 11:21:12;;;;;;;1.35;1.08;;;;;;;19.64;61.60;101283.88;4996175;28;20093;-78
2021/07/10 11:23:38;;;;;;;2.40;1.17;;;;;;;19.88;60.15;101261.16;4996088;28;20104;-79
2021/07/10 11:26:06;;;;;;;1.80;1.10;;;;;;;20.40;59.30;101273.41;4995940;28;20050;-77
2021/07/10 11:28:40;;;;;;;2.00;1.00;;;;;;;20.75;58.27;101254.16;4995256;28;20359;-78